sensor_id;sensor_type;location;lat;lon;timestamp;P1;durP1;ratioP1;P2;durP2;ratioP2
75986;SDS011;75291;44.670;37.810;2024-02-14T00:00:33;17.10;;;7.40;;
75986;SDS011;75291;44.670;37.810;2024-02-14T00:01:36;23.00;;;8.57;;
75986;SDS011;75291;44.670;37.810;2024-02-14T00:02:40;21.70;;;8.68;;
75986;SDS011;75291;44.670;37.810;2024-02-14T00:03:47;18.63;;;7.97;;
75986;SDS011;75291;44.670;37.810;2024-02-14T00:04:52;18.05;;;8.02;;
75986;SDS011;75291;44.670;37.810;2024-02-14T00:05:56;19.67;;;7.75;;
75986;SDS011;75291;44.670;37.810;2024-02-14T00:07:00;15.45;;;7.38;;
75986;SDS011;75291;44.670;37.810;2024-02-14T00:08:04;15.10;;;6.82;;
75986;SDS011;75291;44.670;37.810;2024-02-14T00:09:07;14.77;;;6.75;;
75986;SDS011;75291;44.670;37.810;2024-02-14T00:10:11;15.13;;;7.22;;
75986;SDS011;75291;44.670;37.810;2024-02-14T00:11:16;17.65;;;7.30;;
75986;SDS011;75291;44.670;37.810;2024-02-14T00:12:20;14.45;;;6.80;;
75986;SDS011;75291;44.670;37.810;2024-02-14T00:13:23;14.40;;;6.90;;
75986;SDS011;75291;44.670;37.810;2024-02-14T00:14:27;17.77;;;7.22;;
75986;SDS011;75291;44.670;37.810;2024-02-14T00:15:30;18.67;;;8.52;;
75986;SDS011;75291;44.670;37.810;2024-02-14T00:16:34;19.10;;;7.55;;
75986;SDS011;75291;44.670;37.810;2024-02-14T00:17:37;17.63;;;7.80;;
75986;SDS011;75291;44.670;37.810;2024-02-14T00:18:40;16.67;;;8.32;;
75986;SDS011;75291;44.670;37.810;2024-02-14T00:19:44;17.58;;;8.80;;
75986;SDS011;75291;44.670;37.810;2024-02-14T00:20:47;19.17;;;7.88;;
75986;SDS011;75291;44.670;37.810;2024-02-14T00:21:51;18.15;;;8.18;;
75986;SDS011;75291;44.670;37.810;2024-02-14T00:22:54;15.93;;;7.47;;
75986;SDS011;75291;44.670;37.810;2024-02-14T00:23:58;15.30;;;7.43;;
75986;SDS011;75291;44.670;37.810;2024-02-14T00:25:01;18.35;;;8.30;;
75986;SDS011;75291;44.670;37.810;2024-02-14T00:26:07;24.02;;;9.80;;
75986;SDS011;75291;44.670;37.810;2024-02-14T00:27:10;23.60;;;9.27;;
75986;SDS011;75291;44.670;37.810;2024-02-14T00:28:13;25.52;;;10.23;;
75986;SDS011;75291;44.670;37.810;2024-02-14T00:29:17;27.90;;;10.63;;
75986;SDS011;75291;44.670;37.810;2024-02-14T00:30:20;28.95;;;10.52;;
75986;SDS011;75291;44.670;37.810;2024-02-14T00:31:58;21.83;;;9.80;;
75986;SDS011;75291;44.670;37.810;2024-02-14T00:33:03;21.98;;;9.05;;
75986;SDS011;75291;44.670;37.810;2024-02-14T00:34:07;22.10;;;9.85;;
75986;SDS011;75291;44.670;37.810;2024-02-14T00:35:11;24.17;;;9.80;;
75986;SDS011;75291;44.670;37.810;2024-02-14T00:36:14;21.02;;;9.27;;
75986;SDS011;75291;44.670;37.810;2024-02-14T00:37:21;22.65;;;8.88;;
75986;SDS011;75291;44.670;37.810;2024-02-14T00:38:24;25.33;;;10.40;;
75986;SDS011;75291;44.670;37.810;2024-02-14T00:39:28;19.75;;;8.98;;
75986;SDS011;75291;44.670;37.810;2024-02-14T00:40:32;18.55;;;8.85;;
75986;SDS011;75291;44.670;37.810;2024-02-14T00:41:36;14.48;;;7.63;;
75986;SDS011;75291;44.670;37.810;2024-02-14T00:42:39;14.27;;;6.97;;
75986;SDS011;75291;44.670;37.810;2024-02-14T00:43:42;13.98;;;6.65;;
75986;SDS011;75291;44.670;37.810;2024-02-14T00:44:46;17.27;;;7.93;;
75986;SDS011;75291;44.670;37.810;2024-02-14T00:45:49;15.10;;;7.63;;
75986;SDS011;75291;44.670;37.810;2024-02-14T00:46:56;15.50;;;7.75;;
75986;SDS011;75291;44.670;37.810;2024-02-14T01:03:06;12.90;;;7.10;;
75986;SDS011;75291;44.670;37.810;2024-02-14T01:04:10;11.48;;;6.15;;
75986;SDS011;75291;44.670;37.810;2024-02-14T01:20:47;12.25;;;6.65;;
75986;SDS011;75291;44.670;37.810;2024-02-14T01:37:09;9.90;;;5.55;;
75986;SDS011;75291;44.670;37.810;2024-02-14T01:38:13;13.07;;;7.07;;
75986;SDS011;75291;44.670;37.810;2024-02-14T01:52:09;6.30;;;3.90;;
75986;SDS011;75291;44.670;37.810;2024-02-14T01:53:13;10.05;;;4.30;;
75986;SDS011;75291;44.670;37.810;2024-02-14T01:54:16;8.07;;;4.32;;
75986;SDS011;75291;44.670;37.810;2024-02-14T01:55:21;7.90;;;4.40;;
75986;SDS011;75291;44.670;37.810;2024-02-14T01:56:25;8.65;;;5.07;;
75986;SDS011;75291;44.670;37.810;2024-02-14T01:57:31;7.05;;;5.00;;
75986;SDS011;75291;44.670;37.810;2024-02-14T01:58:34;9.32;;;5.70;;
75986;SDS011;75291;44.670;37.810;2024-02-14T01:59:39;8.40;;;5.43;;
75986;SDS011;75291;44.670;37.810;2024-02-14T02:00:42;13.57;;;6.60;;
75986;SDS011;75291;44.670;37.810;2024-02-14T02:01:48;9.35;;;5.75;;
75986;SDS011;75291;44.670;37.810;2024-02-14T02:02:52;11.48;;;5.97;;
75986;SDS011;75291;44.670;37.810;2024-02-14T02:03:57;11.07;;;7.05;;
75986;SDS011;75291;44.670;37.810;2024-02-14T02:05:01;11.07;;;6.60;;
75986;SDS011;75291;44.670;37.810;2024-02-14T02:06:06;11.95;;;6.80;;
75986;SDS011;75291;44.670;37.810;2024-02-14T02:07:09;12.18;;;6.25;;
75986;SDS011;75291;44.670;37.810;2024-02-14T02:08:12;14.23;;;6.57;;
75986;SDS011;75291;44.670;37.810;2024-02-14T02:09:17;8.93;;;6.13;;
75986;SDS011;75291;44.670;37.810;2024-02-14T02:10:21;11.27;;;6.65;;
75986;SDS011;75291;44.670;37.810;2024-02-14T02:11:45;11.10;;;6.80;;
75986;SDS011;75291;44.670;37.810;2024-02-14T02:28:30;9.77;;;5.45;;
75986;SDS011;75291;44.670;37.810;2024-02-14T02:29:34;10.65;;;6.28;;
75986;SDS011;75291;44.670;37.810;2024-02-14T02:46:01;9.63;;;5.40;;
75986;SDS011;75291;44.670;37.810;2024-02-14T03:02:53;10.52;;;4.78;;
75986;SDS011;75291;44.670;37.810;2024-02-14T03:19:36;17.35;;;7.70;;
75986;SDS011;75291;44.670;37.810;2024-02-14T03:20:41;15.63;;;7.38;;
75986;SDS011;75291;44.670;37.810;2024-02-14T03:21:45;14.60;;;7.00;;
75986;SDS011;75291;44.670;37.810;2024-02-14T03:22:49;9.98;;;4.97;;
75986;SDS011;75291;44.670;37.810;2024-02-14T03:23:52;15.00;;;7.15;;
75986;SDS011;75291;44.670;37.810;2024-02-14T03:24:56;12.50;;;5.60;;
75986;SDS011;75291;44.670;37.810;2024-02-14T03:26:00;10.43;;;5.93;;
75986;SDS011;75291;44.670;37.810;2024-02-14T03:27:04;11.13;;;6.22;;
75986;SDS011;75291;44.670;37.810;2024-02-14T03:28:11;11.05;;;5.47;;
75986;SDS011;75291;44.670;37.810;2024-02-14T03:29:15;9.00;;;5.53;;
75986;SDS011;75291;44.670;37.810;2024-02-14T03:30:20;12.93;;;6.40;;
75986;SDS011;75291;44.670;37.810;2024-02-14T03:31:25;10.13;;;5.07;;
75986;SDS011;75291;44.670;37.810;2024-02-14T03:32:29;8.18;;;4.38;;
75986;SDS011;75291;44.670;37.810;2024-02-14T03:33:33;10.23;;;5.30;;
75986;SDS011;75291;44.670;37.810;2024-02-14T03:34:37;13.15;;;5.00;;
75986;SDS011;75291;44.670;37.810;2024-02-14T03:35:41;11.00;;;4.78;;
75986;SDS011;75291;44.670;37.810;2024-02-14T03:36:45;10.15;;;5.15;;
75986;SDS011;75291;44.670;37.810;2024-02-14T03:37:49;6.90;;;4.47;;
75986;SDS011;75291;44.670;37.810;2024-02-14T03:38:56;11.70;;;4.60;;
75986;SDS011;75291;44.670;37.810;2024-02-14T03:40:00;10.57;;;5.00;;
75986;SDS011;75291;44.670;37.810;2024-02-14T03:41:06;6.75;;;4.32;;
75986;SDS011;75291;44.670;37.810;2024-02-14T03:42:10;14.45;;;4.90;;
75986;SDS011;75291;44.670;37.810;2024-02-14T03:43:14;11.80;;;5.07;;
75986;SDS011;75291;44.670;37.810;2024-02-14T03:44:18;10.63;;;4.43;;
75986;SDS011;75291;44.670;37.810;2024-02-14T03:45:22;10.88;;;4.10;;
75986;SDS011;75291;44.670;37.810;2024-02-14T03:46:26;11.30;;;4.88;;
75986;SDS011;75291;44.670;37.810;2024-02-14T03:47:30;14.07;;;5.22;;
75986;SDS011;75291;44.670;37.810;2024-02-14T03:48:34;9.38;;;4.15;;
75986;SDS011;75291;44.670;37.810;2024-02-14T03:49:38;13.82;;;5.50;;
75986;SDS011;75291;44.670;37.810;2024-02-14T03:50:43;10.80;;;4.63;;
75986;SDS011;75291;44.670;37.810;2024-02-14T03:51:47;13.15;;;4.85;;
75986;SDS011;75291;44.670;37.810;2024-02-14T03:52:52;16.67;;;5.22;;
75986;SDS011;75291;44.670;37.810;2024-02-14T03:53:56;12.80;;;4.72;;
75986;SDS011;75291;44.670;37.810;2024-02-14T03:55:00;17.00;;;5.22;;
75986;SDS011;75291;44.670;37.810;2024-02-14T03:56:06;16.67;;;5.57;;
75986;SDS011;75291;44.670;37.810;2024-02-14T03:57:12;21.70;;;5.82;;
75986;SDS011;75291;44.670;37.810;2024-02-14T03:58:15;20.73;;;5.57;;
75986;SDS011;75291;44.670;37.810;2024-02-14T03:59:23;16.98;;;5.88;;
75986;SDS011;75291;44.670;37.810;2024-02-14T04:00:27;16.95;;;5.20;;
75986;SDS011;75291;44.670;37.810;2024-02-14T04:01:32;25.38;;;6.75;;
75986;SDS011;75291;44.670;37.810;2024-02-14T04:02:36;15.85;;;5.57;;
75986;SDS011;75291;44.670;37.810;2024-02-14T04:03:40;19.25;;;6.40;;
75986;SDS011;75291;44.670;37.810;2024-02-14T04:04:44;16.38;;;5.45;;
75986;SDS011;75291;44.670;37.810;2024-02-14T04:05:49;24.58;;;8.05;;
75986;SDS011;75291;44.670;37.810;2024-02-14T04:06:53;27.15;;;6.88;;
75986;SDS011;75291;44.670;37.810;2024-02-14T04:07:56;32.22;;;6.63;;
75986;SDS011;75291;44.670;37.810;2024-02-14T04:09:00;25.50;;;6.38;;
75986;SDS011;75291;44.670;37.810;2024-02-14T04:10:05;26.88;;;6.15;;
75986;SDS011;75291;44.670;37.810;2024-02-14T04:11:09;18.48;;;5.35;;
75986;SDS011;75291;44.670;37.810;2024-02-14T04:12:12;19.92;;;6.50;;
75986;SDS011;75291;44.670;37.810;2024-02-14T04:13:16;24.98;;;6.07;;
75986;SDS011;75291;44.670;37.810;2024-02-14T04:14:19;28.80;;;6.38;;
75986;SDS011;75291;44.670;37.810;2024-02-14T04:15:23;15.80;;;4.90;;
75986;SDS011;75291;44.670;37.810;2024-02-14T04:16:30;29.60;;;11.63;;
75986;SDS011;75291;44.670;37.810;2024-02-14T04:17:34;33.67;;;9.30;;
75986;SDS011;75291;44.670;37.810;2024-02-14T04:18:37;30.00;;;9.68;;
75986;SDS011;75291;44.670;37.810;2024-02-14T04:19:41;32.90;;;8.82;;
75986;SDS011;75291;44.670;37.810;2024-02-14T04:20:45;30.75;;;6.97;;
75986;SDS011;75291;44.670;37.810;2024-02-14T04:21:48;32.80;;;7.95;;
75986;SDS011;75291;44.670;37.810;2024-02-14T04:22:52;29.20;;;7.20;;
75986;SDS011;75291;44.670;37.810;2024-02-14T04:23:56;25.30;;;7.30;;
75986;SDS011;75291;44.670;37.810;2024-02-14T04:25:00;35.80;;;8.43;;
75986;SDS011;75291;44.670;37.810;2024-02-14T04:26:05;25.88;;;6.97;;
75986;SDS011;75291;44.670;37.810;2024-02-14T04:27:08;26.05;;;6.85;;
75986;SDS011;75291;44.670;37.810;2024-02-14T04:28:12;20.08;;;5.88;;
75986;SDS011;75291;44.670;37.810;2024-02-14T04:29:16;22.15;;;5.93;;
75986;SDS011;75291;44.670;37.810;2024-02-14T04:30:20;13.85;;;5.32;;
75986;SDS011;75291;44.670;37.810;2024-02-14T04:31:39;11.05;;;4.25;;
75986;SDS011;75291;44.670;37.810;2024-02-14T04:32:43;19.35;;;5.75;;
75986;SDS011;75291;44.670;37.810;2024-02-14T04:33:47;15.38;;;5.22;;
75986;SDS011;75291;44.670;37.810;2024-02-14T04:34:54;18.15;;;8.63;;
75986;SDS011;75291;44.670;37.810;2024-02-14T04:35:58;15.20;;;8.57;;
75986;SDS011;75291;44.670;37.810;2024-02-14T04:37:01;15.07;;;9.30;;
75986;SDS011;75291;44.670;37.810;2024-02-14T04:38:11;19.33;;;9.10;;
75986;SDS011;75291;44.670;37.810;2024-02-14T04:39:14;25.88;;;8.65;;
75986;SDS011;75291;44.670;37.810;2024-02-14T04:40:18;24.92;;;8.23;;
75986;SDS011;75291;44.670;37.810;2024-02-14T04:41:22;22.00;;;6.93;;
75986;SDS011;75291;44.670;37.810;2024-02-14T04:42:26;27.38;;;7.03;;
75986;SDS011;75291;44.670;37.810;2024-02-14T04:43:29;34.47;;;7.75;;
75986;SDS011;75291;44.670;37.810;2024-02-14T04:44:33;24.80;;;8.18;;
75986;SDS011;75291;44.670;37.810;2024-02-14T04:45:38;22.77;;;6.78;;
75986;SDS011;75291;44.670;37.810;2024-02-14T04:46:42;23.77;;;7.38;;
75986;SDS011;75291;44.670;37.810;2024-02-14T04:47:47;18.67;;;5.80;;
75986;SDS011;75291;44.670;37.810;2024-02-14T04:48:50;19.60;;;6.68;;
75986;SDS011;75291;44.670;37.810;2024-02-14T04:49:53;20.25;;;6.70;;
75986;SDS011;75291;44.670;37.810;2024-02-14T04:50:57;19.38;;;6.95;;
75986;SDS011;75291;44.670;37.810;2024-02-14T04:52:00;20.00;;;6.57;;
75986;SDS011;75291;44.670;37.810;2024-02-14T04:53:04;17.95;;;7.03;;
75986;SDS011;75291;44.670;37.810;2024-02-14T04:54:08;20.00;;;6.72;;
75986;SDS011;75291;44.670;37.810;2024-02-14T04:55:12;20.38;;;6.97;;
75986;SDS011;75291;44.670;37.810;2024-02-14T04:56:16;22.75;;;6.55;;
75986;SDS011;75291;44.670;37.810;2024-02-14T04:57:19;18.52;;;6.00;;
75986;SDS011;75291;44.670;37.810;2024-02-14T04:58:23;20.70;;;5.85;;
75986;SDS011;75291;44.670;37.810;2024-02-14T04:59:26;17.00;;;6.30;;
75986;SDS011;75291;44.670;37.810;2024-02-14T05:00:30;17.65;;;5.85;;
75986;SDS011;75291;44.670;37.810;2024-02-14T05:01:34;17.35;;;5.72;;
75986;SDS011;75291;44.670;37.810;2024-02-14T05:02:38;20.42;;;5.75;;
75986;SDS011;75291;44.670;37.810;2024-02-14T05:03:42;18.38;;;6.15;;
75986;SDS011;75291;44.670;37.810;2024-02-14T05:04:45;17.42;;;6.07;;
75986;SDS011;75291;44.670;37.810;2024-02-14T05:05:49;20.52;;;5.72;;
75986;SDS011;75291;44.670;37.810;2024-02-14T05:06:53;18.05;;;6.00;;
75986;SDS011;75291;44.670;37.810;2024-02-14T05:07:57;16.73;;;5.90;;
75986;SDS011;75291;44.670;37.810;2024-02-14T05:09:01;15.20;;;6.40;;
75986;SDS011;75291;44.670;37.810;2024-02-14T05:10:05;22.35;;;6.60;;
75986;SDS011;75291;44.670;37.810;2024-02-14T05:11:10;12.98;;;6.07;;
75986;SDS011;75291;44.670;37.810;2024-02-14T05:12:13;17.45;;;5.70;;
75986;SDS011;75291;44.670;37.810;2024-02-14T05:13:17;19.33;;;5.82;;
75986;SDS011;75291;44.670;37.810;2024-02-14T05:14:20;21.55;;;7.88;;
75986;SDS011;75291;44.670;37.810;2024-02-14T05:15:24;19.88;;;6.22;;
75986;SDS011;75291;44.670;37.810;2024-02-14T05:16:28;22.33;;;7.70;;
75986;SDS011;75291;44.670;37.810;2024-02-14T05:17:31;21.63;;;6.53;;
75986;SDS011;75291;44.670;37.810;2024-02-14T05:18:34;25.98;;;7.53;;
75986;SDS011;75291;44.670;37.810;2024-02-14T05:19:38;25.33;;;7.40;;
75986;SDS011;75291;44.670;37.810;2024-02-14T05:20:41;24.45;;;7.00;;
75986;SDS011;75291;44.670;37.810;2024-02-14T05:21:44;19.80;;;7.60;;
75986;SDS011;75291;44.670;37.810;2024-02-14T05:22:48;22.67;;;7.32;;
75986;SDS011;75291;44.670;37.810;2024-02-14T05:23:51;20.70;;;6.55;;
75986;SDS011;75291;44.670;37.810;2024-02-14T05:24:55;24.38;;;6.63;;
75986;SDS011;75291;44.670;37.810;2024-02-14T05:25:58;22.67;;;5.68;;
75986;SDS011;75291;44.670;37.810;2024-02-14T05:27:01;19.50;;;5.97;;
75986;SDS011;75291;44.670;37.810;2024-02-14T05:28:05;18.52;;;6.65;;
75986;SDS011;75291;44.670;37.810;2024-02-14T05:29:08;19.83;;;6.72;;
75986;SDS011;75291;44.670;37.810;2024-02-14T05:30:12;25.67;;;7.43;;
75986;SDS011;75291;44.670;37.810;2024-02-14T05:31:24;26.13;;;6.68;;
75986;SDS011;75291;44.670;37.810;2024-02-14T05:32:28;27.30;;;8.52;;
75986;SDS011;75291;44.670;37.810;2024-02-14T05:33:31;29.92;;;9.85;;
75986;SDS011;75291;44.670;37.810;2024-02-14T05:34:36;29.98;;;10.82;;
75986;SDS011;75291;44.670;37.810;2024-02-14T05:35:39;19.35;;;8.63;;
75986;SDS011;75291;44.670;37.810;2024-02-14T05:36:43;29.75;;;8.48;;
75986;SDS011;75291;44.670;37.810;2024-02-14T05:37:48;27.00;;;9.55;;
75986;SDS011;75291;44.670;37.810;2024-02-14T05:38:52;32.92;;;9.80;;
75986;SDS011;75291;44.670;37.810;2024-02-14T05:39:55;25.58;;;8.10;;
75986;SDS011;75291;44.670;37.810;2024-02-14T05:40:59;25.95;;;8.60;;
75986;SDS011;75291;44.670;37.810;2024-02-14T05:42:03;23.60;;;8.73;;
75986;SDS011;75291;44.670;37.810;2024-02-14T05:43:08;23.88;;;7.97;;
75986;SDS011;75291;44.670;37.810;2024-02-14T05:44:11;23.80;;;8.13;;
75986;SDS011;75291;44.670;37.810;2024-02-14T05:45:15;18.58;;;8.00;;
75986;SDS011;75291;44.670;37.810;2024-02-14T05:46:18;18.65;;;8.20;;
75986;SDS011;75291;44.670;37.810;2024-02-14T05:47:23;21.45;;;9.30;;
75986;SDS011;75291;44.670;37.810;2024-02-14T05:48:27;22.80;;;9.75;;
75986;SDS011;75291;44.670;37.810;2024-02-14T05:49:31;19.80;;;9.18;;
75986;SDS011;75291;44.670;37.810;2024-02-14T05:50:34;24.10;;;9.05;;
75986;SDS011;75291;44.670;37.810;2024-02-14T05:51:37;26.13;;;9.82;;
75986;SDS011;75291;44.670;37.810;2024-02-14T05:52:40;20.00;;;8.73;;
75986;SDS011;75291;44.670;37.810;2024-02-14T05:53:44;16.67;;;7.82;;
75986;SDS011;75291;44.670;37.810;2024-02-14T05:54:47;22.13;;;7.13;;
75986;SDS011;75291;44.670;37.810;2024-02-14T05:55:51;17.45;;;7.50;;
75986;SDS011;75291;44.670;37.810;2024-02-14T05:56:53;16.13;;;6.93;;
75986;SDS011;75291;44.670;37.810;2024-02-14T05:57:57;23.45;;;7.40;;
75986;SDS011;75291;44.670;37.810;2024-02-14T05:59:02;21.45;;;7.50;;
75986;SDS011;75291;44.670;37.810;2024-02-14T06:00:05;23.92;;;7.63;;
75986;SDS011;75291;44.670;37.810;2024-02-14T06:02:16;17.98;;;8.05;;
75986;SDS011;75291;44.670;37.810;2024-02-14T06:03:19;27.55;;;7.97;;
75986;SDS011;75291;44.670;37.810;2024-02-14T06:04:22;26.80;;;7.13;;
75986;SDS011;75291;44.670;37.810;2024-02-14T06:05:25;33.20;;;11.07;;
75986;SDS011;75291;44.670;37.810;2024-02-14T06:06:28;34.05;;;9.88;;
75986;SDS011;75291;44.670;37.810;2024-02-14T06:07:32;38.83;;;9.73;;
75986;SDS011;75291;44.670;37.810;2024-02-14T06:08:35;31.05;;;9.98;;
75986;SDS011;75291;44.670;37.810;2024-02-14T06:09:39;35.15;;;9.65;;
75986;SDS011;75291;44.670;37.810;2024-02-14T06:10:42;35.63;;;9.48;;
75986;SDS011;75291;44.670;37.810;2024-02-14T06:11:46;25.23;;;7.28;;
75986;SDS011;75291;44.670;37.810;2024-02-14T06:12:49;27.63;;;8.55;;
75986;SDS011;75291;44.670;37.810;2024-02-14T06:13:55;22.95;;;7.68;;
75986;SDS011;75291;44.670;37.810;2024-02-14T06:14:58;26.45;;;8.05;;
75986;SDS011;75291;44.670;37.810;2024-02-14T06:16:03;24.70;;;8.38;;
75986;SDS011;75291;44.670;37.810;2024-02-14T06:17:07;28.38;;;7.68;;
75986;SDS011;75291;44.670;37.810;2024-02-14T06:18:10;23.15;;;8.98;;
75986;SDS011;75291;44.670;37.810;2024-02-14T06:19:14;20.50;;;8.35;;
75986;SDS011;75291;44.670;37.810;2024-02-14T06:20:17;15.82;;;6.95;;
75986;SDS011;75291;44.670;37.810;2024-02-14T06:21:20;17.80;;;7.25;;
75986;SDS011;75291;44.670;37.810;2024-02-14T06:22:23;20.08;;;6.93;;
75986;SDS011;75291;44.670;37.810;2024-02-14T06:23:27;16.27;;;6.90;;
75986;SDS011;75291;44.670;37.810;2024-02-14T06:24:30;21.00;;;6.60;;
75986;SDS011;75291;44.670;37.810;2024-02-14T06:25:34;18.23;;;6.95;;
75986;SDS011;75291;44.670;37.810;2024-02-14T06:26:42;21.42;;;9.55;;
75986;SDS011;75291;44.670;37.810;2024-02-14T06:27:46;23.60;;;9.02;;
75986;SDS011;75291;44.670;37.810;2024-02-14T06:28:50;31.48;;;10.13;;
75986;SDS011;75291;44.670;37.810;2024-02-14T06:31:03;38.90;;;11.40;;
75986;SDS011;75291;44.670;37.810;2024-02-14T06:32:07;39.33;;;11.77;;
75986;SDS011;75291;44.670;37.810;2024-02-14T06:33:11;38.25;;;10.38;;
75986;SDS011;75291;44.670;37.810;2024-02-14T06:34:16;28.63;;;9.95;;
75986;SDS011;75291;44.670;37.810;2024-02-14T06:35:20;33.33;;;9.55;;
75986;SDS011;75291;44.670;37.810;2024-02-14T06:36:24;28.45;;;9.20;;
75986;SDS011;75291;44.670;37.810;2024-02-14T06:37:28;34.10;;;9.30;;
75986;SDS011;75291;44.670;37.810;2024-02-14T06:38:33;30.45;;;8.10;;
75986;SDS011;75291;44.670;37.810;2024-02-14T06:39:36;24.67;;;7.60;;
75986;SDS011;75291;44.670;37.810;2024-02-14T06:40:40;21.80;;;7.18;;
75986;SDS011;75291;44.670;37.810;2024-02-14T06:41:43;24.17;;;7.88;;
75986;SDS011;75291;44.670;37.810;2024-02-14T06:42:47;16.55;;;6.55;;
75986;SDS011;75291;44.670;37.810;2024-02-14T06:43:53;20.13;;;7.10;;
75986;SDS011;75291;44.670;37.810;2024-02-14T06:44:56;20.05;;;7.13;;
75986;SDS011;75291;44.670;37.810;2024-02-14T06:45:59;17.02;;;8.00;;
75986;SDS011;75291;44.670;37.810;2024-02-14T06:47:09;19.05;;;6.95;;
75986;SDS011;75291;44.670;37.810;2024-02-14T06:48:12;18.77;;;7.82;;
75986;SDS011;75291;44.670;37.810;2024-02-14T06:49:16;19.63;;;7.82;;
75986;SDS011;75291;44.670;37.810;2024-02-14T06:50:20;22.33;;;8.00;;
75986;SDS011;75291;44.670;37.810;2024-02-14T06:51:23;25.23;;;7.95;;
75986;SDS011;75291;44.670;37.810;2024-02-14T06:52:26;27.73;;;9.07;;
75986;SDS011;75291;44.670;37.810;2024-02-14T06:53:30;21.67;;;6.78;;
75986;SDS011;75291;44.670;37.810;2024-02-14T06:54:33;24.15;;;6.93;;
75986;SDS011;75291;44.670;37.810;2024-02-14T06:55:37;16.60;;;6.40;;
75986;SDS011;75291;44.670;37.810;2024-02-14T06:56:40;18.15;;;6.45;;
75986;SDS011;75291;44.670;37.810;2024-02-14T06:57:44;15.73;;;7.05;;
75986;SDS011;75291;44.670;37.810;2024-02-14T06:58:47;11.80;;;5.88;;
75986;SDS011;75291;44.670;37.810;2024-02-14T06:59:55;13.88;;;6.35;;
75986;SDS011;75291;44.670;37.810;2024-02-14T07:00:59;14.18;;;6.03;;
75986;SDS011;75291;44.670;37.810;2024-02-14T07:02:03;10.95;;;5.28;;
75986;SDS011;75291;44.670;37.810;2024-02-14T07:03:11;12.38;;;5.30;;
75986;SDS011;75291;44.670;37.810;2024-02-14T07:04:14;13.07;;;5.72;;
75986;SDS011;75291;44.670;37.810;2024-02-14T07:05:18;14.73;;;5.78;;
75986;SDS011;75291;44.670;37.810;2024-02-14T07:06:21;14.57;;;5.82;;
75986;SDS011;75291;44.670;37.810;2024-02-14T07:07:25;19.17;;;5.75;;
75986;SDS011;75291;44.670;37.810;2024-02-14T07:08:29;15.07;;;6.75;;
75986;SDS011;75291;44.670;37.810;2024-02-14T07:09:32;19.20;;;6.32;;
75986;SDS011;75291;44.670;37.810;2024-02-14T07:10:38;16.27;;;6.20;;
75986;SDS011;75291;44.670;37.810;2024-02-14T07:11:41;18.15;;;6.63;;
75986;SDS011;75291;44.670;37.810;2024-02-14T07:12:45;16.17;;;7.43;;
75986;SDS011;75291;44.670;37.810;2024-02-14T07:13:48;14.55;;;5.82;;
75986;SDS011;75291;44.670;37.810;2024-02-14T07:14:51;12.90;;;6.43;;
75986;SDS011;75291;44.670;37.810;2024-02-14T07:15:54;13.98;;;6.32;;
75986;SDS011;75291;44.670;37.810;2024-02-14T07:16:57;18.75;;;7.20;;
75986;SDS011;75291;44.670;37.810;2024-02-14T07:18:01;14.48;;;7.05;;
75986;SDS011;75291;44.670;37.810;2024-02-14T07:19:04;12.65;;;6.35;;
75986;SDS011;75291;44.670;37.810;2024-02-14T07:20:08;13.85;;;6.65;;
75986;SDS011;75291;44.670;37.810;2024-02-14T07:21:11;17.50;;;6.47;;
75986;SDS011;75291;44.670;37.810;2024-02-14T07:22:15;18.20;;;6.38;;
75986;SDS011;75291;44.670;37.810;2024-02-14T07:23:18;22.23;;;8.60;;
75986;SDS011;75291;44.670;37.810;2024-02-14T07:24:23;18.70;;;7.65;;
75986;SDS011;75291;44.670;37.810;2024-02-14T07:25:26;22.65;;;9.10;;
75986;SDS011;75291;44.670;37.810;2024-02-14T07:26:29;20.35;;;7.80;;
75986;SDS011;75291;44.670;37.810;2024-02-14T07:27:32;29.95;;;8.30;;
75986;SDS011;75291;44.670;37.810;2024-02-14T07:28:36;19.38;;;8.38;;
75986;SDS011;75291;44.670;37.810;2024-02-14T07:29:39;20.20;;;7.72;;
75986;SDS011;75291;44.670;37.810;2024-02-14T07:30:43;20.67;;;8.20;;
75986;SDS011;75291;44.670;37.810;2024-02-14T07:31:46;21.05;;;8.13;;
75986;SDS011;75291;44.670;37.810;2024-02-14T07:32:49;22.90;;;8.52;;
75986;SDS011;75291;44.670;37.810;2024-02-14T07:33:54;24.27;;;9.13;;
75986;SDS011;75291;44.670;37.810;2024-02-14T07:34:57;38.63;;;17.00;;
75986;SDS011;75291;44.670;37.810;2024-02-14T07:36:00;55.92;;;25.75;;
75986;SDS011;75291;44.670;37.810;2024-02-14T07:37:03;67.05;;;33.75;;
75986;SDS011;75291;44.670;37.810;2024-02-14T07:38:07;67.35;;;33.10;;
75986;SDS011;75291;44.670;37.810;2024-02-14T07:39:10;61.67;;;31.02;;
75986;SDS011;75291;44.670;37.810;2024-02-14T07:40:13;79.10;;;39.90;;
75986;SDS011;75291;44.670;37.810;2024-02-14T07:41:32;61.25;;;31.27;;
75986;SDS011;75291;44.670;37.810;2024-02-14T07:42:35;37.03;;;19.98;;
75986;SDS011;75291;44.670;37.810;2024-02-14T07:43:39;31.92;;;14.45;;
75986;SDS011;75291;44.670;37.810;2024-02-14T07:44:42;37.88;;;15.52;;
75986;SDS011;75291;44.670;37.810;2024-02-14T07:45:45;37.97;;;16.17;;
75986;SDS011;75291;44.670;37.810;2024-02-14T07:46:49;37.88;;;17.27;;
75986;SDS011;75291;44.670;37.810;2024-02-14T07:47:52;43.47;;;19.35;;
75986;SDS011;75291;44.670;37.810;2024-02-14T07:48:55;38.72;;;13.63;;
75986;SDS011;75291;44.670;37.810;2024-02-14T07:50:00;36.22;;;14.65;;
75986;SDS011;75291;44.670;37.810;2024-02-14T07:51:07;43.00;;;16.63;;
75986;SDS011;75291;44.670;37.810;2024-02-14T07:52:10;58.83;;;21.15;;
75986;SDS011;75291;44.670;37.810;2024-02-14T07:53:13;82.68;;;26.73;;
75986;SDS011;75291;44.670;37.810;2024-02-14T07:54:17;92.53;;;30.75;;
75986;SDS011;75291;44.670;37.810;2024-02-14T07:55:22;100.72;;;28.35;;
75986;SDS011;75291;44.670;37.810;2024-02-14T07:56:26;88.22;;;26.10;;
75986;SDS011;75291;44.670;37.810;2024-02-14T07:57:30;89.55;;;27.25;;
75986;SDS011;75291;44.670;37.810;2024-02-14T07:58:33;91.07;;;28.58;;
75986;SDS011;75291;44.670;37.810;2024-02-14T07:59:36;84.32;;;24.92;;
75986;SDS011;75291;44.670;37.810;2024-02-14T08:00:39;84.70;;;21.92;;
75986;SDS011;75291;44.670;37.810;2024-02-14T08:01:43;79.50;;;22.35;;
75986;SDS011;75291;44.670;37.810;2024-02-14T08:02:46;108.28;;;31.42;;
75986;SDS011;75291;44.670;37.810;2024-02-14T08:03:49;93.18;;;30.65;;
75986;SDS011;75291;44.670;37.810;2024-02-14T08:04:53;92.38;;;25.20;;
75986;SDS011;75291;44.670;37.810;2024-02-14T08:05:56;102.05;;;30.73;;
75986;SDS011;75291;44.670;37.810;2024-02-14T08:06:59;77.80;;;22.13;;
75986;SDS011;75291;44.670;37.810;2024-02-14T08:08:03;78.10;;;21.10;;
75986;SDS011;75291;44.670;37.810;2024-02-14T08:09:07;64.40;;;19.88;;
75986;SDS011;75291;44.670;37.810;2024-02-14T08:10:12;55.78;;;16.08;;
75986;SDS011;75291;44.670;37.810;2024-02-14T08:11:16;51.35;;;16.77;;
75986;SDS011;75291;44.670;37.810;2024-02-14T08:12:20;39.55;;;15.43;;
75986;SDS011;75291;44.670;37.810;2024-02-14T08:13:24;53.88;;;16.58;;
75986;SDS011;75291;44.670;37.810;2024-02-14T08:14:27;46.72;;;15.27;;
75986;SDS011;75291;44.670;37.810;2024-02-14T08:15:31;44.78;;;15.32;;
75986;SDS011;75291;44.670;37.810;2024-02-14T08:16:35;38.92;;;13.77;;
75986;SDS011;75291;44.670;37.810;2024-02-14T08:17:38;40.50;;;14.30;;
75986;SDS011;75291;44.670;37.810;2024-02-14T08:18:42;35.78;;;12.23;;